Capitol Logistics 435


KSMF
Sacramento International Airport
Sacramento, California, US
KSLC
Salt Lake City International Airport
Salt Lake City, Utah, US

Activity Log

Date Flight Route Aircraft Duration
02/01/2020 CPX435 SCTWN2 MACUS Q124 BVL WAATS5 B738 1h 38m
05/08/2019 CPX435 SCTWN2 MACUS Q124 BVL WAATS5 B752 1h 31m
02/03/2019 CPX435 SCTWN2 MACUS Q124 BVL WAATS5 B752 1h 30m

Route Details

Aircraft Information
Primary: Boeing 757-200SF
Backup: Boeing 737-800BCF
Route Data
Distance: 462nm
Sched. Duration: 1h 30m
Avg. Duration: 1h 33m (+3m)
Times Flown: 3
Recm'd Route: SCTWN2 MACUS Q124 BVL WAATS5
Planned Altitude: 37,000ft
Origin Wx: KSMF 251253Z 19005KT 10SM CLR 10/08 A2989 RMK AO2 SLP121 T01000083
Dest. Wx: KSLC 251331Z 33016G21KT 1 3/4SM -SN BR SCT006 BKN025 OVC035 00/00 A2991 RMK AO2 TWR VIS 2 CIG 012 NW RNWY P0001 T00000000 VISNO NW RNWY $
Notes:

Financial History
Total Freight: 146,726lbs
Average Load: 48,909lbs/flt
Fuel Used: 31,328lbs
Avg. Fuel Used: 10,443lbs/flt
Fuel Expense: $34,148
Avg. Fuel Expense: $11,383
Avg. Fuel Cost: $1.09/lbs
Total Gross Income: $192,726
Pilot Pay: $557
Total Expenses: $20,970
Total Revenue: $136,723
Average Revenue: $64,241.85